Terminal Aerodrome Forecast
Issued by NWS

Home | Current Version | Previous Version | Text Only | Print | Product List | Glossary Off
Versions: 1 2 3 4 5 6 7 8 9 10 11 12 13 14 15 16 17

742
FTUS43 KGRB 230520
TAFMTW
TAF
KMTW 230520Z 2306/2406 VRB03KT P6SM SCT250
      TEMPO 2307/2311 4SM BR
     FM231400 11006KT P6SM SCT250
     FM231900 16008G13KT P6SM SCT040 BKN200
     FM240000 18006KT P6SM SCT045 BKN100 PROB30 2400/2403 4SM -TSRA
      BR BKN035CB
     FM240300 19006KT 4SM -TSRA BR BKN030CB=

USA.gov is the U.S. government's official web portal to all federal, state and local government web resources and services.